createdAt,value
2018-03-25T00:00:40.100Z,55.40
2018-03-25T00:03:11.189Z,55.80
2018-03-25T00:05:38.795Z,55.80
2018-03-25T00:08:06.331Z,55.70
2018-03-25T00:10:35.752Z,55.80
2018-03-25T00:13:03.494Z,55.70
2018-03-25T00:15:31.973Z,55.60
2018-03-25T00:17:59.542Z,55.80
2018-03-25T00:20:29.700Z,55.80
2018-03-25T00:22:57.800Z,55.90
2018-03-25T00:25:26.130Z,55.90
2018-03-25T00:27:54.264Z,55.90
2018-03-25T00:30:21.820Z,56.00
2018-03-25T00:32:49.665Z,56.00
2018-03-25T00:35:17.533Z,56.10
2018-03-25T00:37:45.217Z,56.70
2018-03-25T00:40:13.478Z,56.20
2018-03-25T00:42:41.044Z,56.20
2018-03-25T00:45:10.371Z,56.30
2018-03-25T00:47:40.280Z,56.30
2018-03-25T00:50:07.803Z,56.50
2018-03-25T00:52:36.148Z,56.60
2018-03-25T00:55:04.020Z,56.40
2018-03-25T00:57:32.293Z,56.50
2018-03-25T01:00:00.332Z,56.40
2018-03-25T01:02:29.858Z,56.40
2018-03-25T01:04:58.923Z,56.80
2018-03-25T01:07:26.476Z,56.80
2018-03-25T01:09:54.724Z,56.90
2018-03-25T01:12:22.406Z,56.90
2018-03-25T01:14:49.938Z,56.80
2018-03-25T01:17:18.873Z,56.80
2018-03-25T01:19:46.386Z,56.70
2018-03-25T01:22:13.995Z,56.60
2018-03-25T01:24:41.554Z,56.50
2018-03-25T01:27:09.065Z,56.50
2018-03-25T01:29:36.632Z,56.50
2018-03-25T01:32:05.417Z,56.60
2018-03-25T01:34:33.127Z,56.50
2018-03-25T01:37:01.295Z,56.50
2018-03-25T01:39:29.759Z,56.70
2018-03-25T01:41:57.308Z,56.60
2018-03-25T01:44:26.512Z,56.70
2018-03-25T01:46:54.036Z,56.70
2018-03-25T01:49:21.557Z,56.80
2018-03-25T01:51:49.160Z,56.80
2018-03-25T01:54:17.513Z,56.90
2018-03-25T01:56:45.770Z,56.90
2018-03-25T01:59:14.017Z,56.90
2018-03-25T02:01:41.561Z,56.90
2018-03-25T02:04:09.870Z,56.90
2018-03-25T02:06:37.459Z,56.90
2018-03-25T02:09:05.776Z,57.00
2018-03-25T02:11:33.940Z,56.80
2018-03-25T02:14:01.520Z,56.90
2018-03-25T02:16:30.677Z,57.00
2018-03-25T02:18:58.227Z,57.00
2018-03-25T02:21:27.168Z,57.00
2018-03-25T02:23:55.319Z,57.10
2018-03-25T02:26:22.896Z,57.10
2018-03-25T02:28:51.148Z,57.20
2018-03-25T02:31:19.340Z,57.30
2018-03-25T02:33:46.872Z,57.40
2018-03-25T02:36:15.189Z,58.00
2018-03-25T02:38:44.309Z,57.50
2018-03-25T02:41:12.568Z,57.40
2018-03-25T02:43:40.876Z,57.70
2018-03-25T02:46:08.509Z,57.60
2018-03-25T02:48:36.035Z,57.70
2018-03-25T02:51:05.273Z,57.80
2018-03-25T02:53:33.372Z,57.70
2018-03-25T02:56:00.931Z,57.80
2018-03-25T02:58:29.600Z,57.90
2018-03-25T03:00:57.231Z,58.00
2018-03-25T03:03:26.460Z,58.80
2018-03-25T03:05:54.637Z,58.20
2018-03-25T03:08:22.273Z,58.10
2018-03-25T03:10:49.824Z,58.20
2018-03-25T03:13:18.371Z,58.20
2018-03-25T03:15:46.818Z,58.20
2018-03-25T03:18:14.670Z,58.10
2018-03-25T03:20:43.536Z,58.20
2018-03-25T03:23:11.073Z,58.20
2018-03-25T03:25:38.675Z,58.10
2018-03-25T03:28:07.781Z,58.00
2018-03-25T03:30:36.224Z,58.00
2018-03-25T03:33:04.933Z,57.90
2018-03-25T03:35:34.071Z,58.00
2018-03-25T03:38:01.727Z,58.10
2018-03-25T03:40:31.087Z,58.00
2018-03-25T03:42:58.671Z,58.10
2018-03-25T03:45:27.099Z,57.90
2018-03-25T03:47:55.177Z,57.90
2018-03-25T03:50:22.750Z,57.90
2018-03-25T03:52:50.298Z,57.90
2018-03-25T03:55:18.104Z,57.90
2018-03-25T03:57:47.649Z,57.90
2018-03-25T04:00:15.839Z,58.00
2018-03-25T04:02:43.407Z,58.10
2018-03-25T04:05:11.080Z,58.20
2018-03-25T04:07:38.779Z,58.20
2018-03-25T04:10:06.350Z,58.40
2018-03-25T04:12:33.960Z,58.30
2018-03-25T04:15:01.475Z,58.40
2018-03-25T04:17:29.685Z,58.40
2018-03-25T04:19:57.244Z,58.40
2018-03-25T04:22:26.785Z,58.40
2018-03-25T04:24:54.340Z,58.50
2018-03-25T04:27:22.646Z,58.70
2018-03-25T04:29:50.178Z,58.70
2018-03-25T04:32:18.527Z,58.60
2018-03-25T04:34:46.104Z,59.10
2018-03-25T04:37:13.850Z,58.70
2018-03-25T04:39:41.468Z,58.90
2018-03-25T04:42:09.060Z,58.90
2018-03-25T04:44:36.613Z,59.00
2018-03-25T04:47:04.950Z,58.90
2018-03-25T04:49:33.284Z,59.00
2018-03-25T04:52:00.799Z,59.00
2018-03-25T04:54:28.383Z,58.80
2018-03-25T04:56:55.989Z,59.00
2018-03-25T04:59:23.559Z,58.90
2018-03-25T05:01:51.144Z,58.90
2018-03-25T05:04:19.343Z,58.80
2018-03-25T05:06:48.515Z,58.90
2018-03-25T05:09:16.880Z,59.00
2018-03-25T05:11:45.987Z,58.90
2018-03-25T05:14:13.551Z,58.90
2018-03-25T05:16:41.276Z,59.00
2018-03-25T05:19:09.817Z,58.90
2018-03-25T05:21:37.371Z,58.90
2018-03-25T05:24:05.437Z,58.80
2018-03-25T05:26:33.824Z,58.70
2018-03-25T05:29:01.463Z,58.80
2018-03-25T05:31:29.037Z,58.80
2018-03-25T05:33:56.551Z,58.70
2018-03-25T05:36:24.337Z,58.60
2018-03-25T05:38:51.891Z,58.70
2018-03-25T05:41:20.191Z,58.60
2018-03-25T05:43:47.760Z,58.60
2018-03-25T05:46:16.119Z,58.60
2018-03-25T05:48:44.516Z,58.50
2018-03-25T05:51:12.090Z,58.40
2018-03-25T05:53:39.745Z,58.50
2018-03-25T05:56:07.420Z,58.50
2018-03-25T05:58:35.486Z,58.60
2018-03-25T06:01:03.079Z,58.60
2018-03-25T06:03:31.322Z,58.50
2018-03-25T06:06:00.164Z,58.50
2018-03-25T06:08:29.072Z,58.50
2018-03-25T06:10:58.153Z,58.60
2018-03-25T06:13:26.536Z,58.80
2018-03-25T06:15:55.489Z,58.70
2018-03-25T06:18:22.999Z,58.60
2018-03-25T06:20:50.519Z,58.80
2018-03-25T06:23:18.079Z,58.70
2018-03-25T06:25:46.392Z,58.80
2018-03-25T06:28:15.290Z,58.60
2018-03-25T06:30:42.865Z,58.60
2018-03-25T06:33:10.482Z,58.90
2018-03-25T06:35:38.010Z,58.80
2018-03-25T06:38:07.340Z,58.80
2018-03-25T06:40:35.544Z,58.60
2018-03-25T06:43:04.329Z,58.60
2018-03-25T06:45:31.867Z,58.30
2018-03-25T06:48:01.036Z,58.30
2018-03-25T06:50:30.245Z,58.50
2018-03-25T06:52:57.786Z,58.40
2018-03-25T06:55:26.152Z,58.40
2018-03-25T06:57:54.365Z,58.50
2018-03-25T07:00:21.927Z,58.40
2018-03-25T07:02:50.563Z,58.30
2018-03-25T07:05:18.856Z,58.20
2018-03-25T07:07:47.478Z,58.20
2018-03-25T07:10:15.947Z,58.80
2018-03-25T07:12:43.506Z,58.10
2018-03-25T07:15:11.075Z,58.00
2018-03-25T07:17:39.531Z,57.70
2018-03-25T07:20:07.059Z,57.70
2018-03-25T07:22:35.434Z,57.60
2018-03-25T07:25:04.055Z,57.40
2018-03-25T07:27:31.778Z,57.30
2018-03-25T07:29:59.468Z,57.20
2018-03-25T07:32:27.232Z,56.90
2018-03-25T07:34:55.442Z,57.00
2018-03-25T07:37:23.105Z,56.90
2018-03-25T07:39:50.661Z,56.90
2018-03-25T07:42:18.343Z,56.80
2018-03-25T07:44:46.723Z,56.70
2018-03-25T07:47:14.610Z,56.70
2018-03-25T07:49:42.275Z,56.60
2018-03-25T07:52:10.562Z,56.50
2018-03-25T07:54:38.595Z,56.60
2018-03-25T07:57:06.184Z,56.50
2018-03-25T07:59:35.662Z,56.40
2018-03-25T08:02:03.186Z,56.50
2018-03-25T08:04:30.743Z,56.20
2018-03-25T08:07:00.339Z,55.90
2018-03-25T08:09:27.940Z,56.10
2018-03-25T08:11:55.546Z,55.70
2018-03-25T08:14:24.044Z,55.60
2018-03-25T08:16:51.710Z,55.60
2018-03-25T08:19:19.254Z,55.30
2018-03-25T08:21:47.800Z,55.20
2018-03-25T08:24:16.211Z,55.20
2018-03-25T08:26:43.892Z,55.10
2018-03-25T08:29:12.034Z,54.80
2018-03-25T08:31:40.353Z,54.40
2018-03-25T08:34:07.987Z,54.50
2018-03-25T08:36:37.155Z,54.40
2018-03-25T08:39:05.719Z,54.50
2018-03-25T08:41:33.264Z,54.50
2018-03-25T08:44:01.283Z,54.20
2018-03-25T08:46:30.433Z,53.70
2018-03-25T08:48:57.990Z,53.60
2018-03-25T08:51:27.272Z,53.40
2018-03-25T08:53:55.458Z,53.40
2018-03-25T08:56:23.015Z,52.80
2018-03-25T08:58:51.133Z,52.50
2018-03-25T09:01:18.733Z,52.30
2018-03-25T09:03:46.507Z,52.30
2018-03-25T09:06:14.034Z,52.30
2018-03-25T09:08:42.375Z,52.50
2018-03-25T09:11:10.642Z,52.50
2018-03-25T09:13:38.185Z,52.20
2018-03-25T09:16:05.761Z,51.80
2018-03-25T09:18:34.335Z,51.90
2018-03-25T09:21:01.902Z,51.40
2018-03-25T09:23:30.196Z,50.40
2018-03-25T09:25:57.830Z,50.40
2018-03-25T09:28:26.684Z,49.80
2018-03-25T09:30:55.362Z,49.00
2018-03-25T09:33:23.910Z,48.00
2018-03-25T09:35:51.479Z,47.90
2018-03-25T09:38:19.037Z,48.00
2018-03-25T09:40:46.578Z,47.50
2018-03-25T09:43:14.137Z,47.40
2018-03-25T09:45:41.887Z,47.40
2018-03-25T09:48:10.299Z,47.70
2018-03-25T09:50:37.831Z,47.20
2018-03-25T09:53:06.252Z,46.90
2018-03-25T09:55:36.019Z,47.00
2018-03-25T09:58:03.862Z,47.10
2018-03-25T10:00:36.466Z,47.10
2018-03-25T10:03:09.593Z,47.20
2018-03-25T10:05:37.118Z,47.30
2018-03-25T10:08:05.270Z,47.20
2018-03-25T10:10:32.814Z,47.10
2018-03-25T10:13:00.341Z,46.90
2018-03-25T10:15:28.673Z,46.70
2018-03-25T10:17:56.232Z,46.70
2018-03-25T10:20:24.306Z,46.90
2018-03-25T10:22:51.860Z,46.80
2018-03-25T10:25:21.937Z,46.90
2018-03-25T10:27:49.497Z,46.80
2018-03-25T10:30:18.581Z,46.80
2018-03-25T10:32:46.132Z,46.80
2018-03-25T10:35:13.939Z,47.60
2018-03-25T10:37:42.282Z,47.30
2018-03-25T10:40:09.849Z,47.10
2018-03-25T10:42:37.449Z,47.00
2018-03-25T10:45:06.573Z,46.70
2018-03-25T10:47:34.203Z,46.50
2018-03-25T10:50:01.748Z,46.20
2018-03-25T10:52:30.986Z,46.50
2018-03-25T10:54:58.592Z,46.30
2018-03-25T10:57:27.148Z,46.00
2018-03-25T10:59:55.488Z,46.00
2018-03-25T11:02:23.040Z,45.90
2018-03-25T11:04:51.365Z,46.00
2018-03-25T11:07:18.904Z,45.90
2018-03-25T11:09:46.451Z,45.90
2018-03-25T11:12:14.014Z,45.90
2018-03-25T11:14:42.099Z,45.60
2018-03-25T11:17:09.682Z,45.30
2018-03-25T11:19:37.255Z,45.80
2018-03-25T11:22:05.327Z,45.20
2018-03-25T11:24:32.876Z,45.30
2018-03-25T11:27:00.447Z,45.10
2018-03-25T11:29:28.013Z,45.60
2018-03-25T11:31:57.198Z,45.60
2018-03-25T11:34:25.374Z,45.60
2018-03-25T11:36:52.922Z,45.60
2018-03-25T11:39:21.189Z,45.30
2018-03-25T11:41:48.722Z,45.50
2018-03-25T11:44:16.254Z,45.60
2018-03-25T11:46:43.968Z,45.20
2018-03-25T11:49:11.510Z,44.80
2018-03-25T11:51:39.037Z,44.90
2018-03-25T11:54:07.383Z,44.90
2018-03-25T11:56:34.927Z,44.80
2018-03-25T11:59:02.490Z,44.70
2018-03-25T12:01:30.071Z,44.90
2018-03-25T12:03:58.641Z,45.00
2018-03-25T12:06:28.153Z,44.80
2018-03-25T12:08:56.586Z,44.60
2018-03-25T12:11:24.147Z,45.00
2018-03-25T12:13:52.438Z,44.20
2018-03-25T12:16:19.982Z,44.30
2018-03-25T12:18:48.350Z,44.10
2018-03-25T12:21:16.732Z,44.00
2018-03-25T12:23:45.474Z,44.10
2018-03-25T12:26:13.507Z,44.00
2018-03-25T12:28:41.036Z,44.10
2018-03-25T12:31:09.391Z,43.70
2018-03-25T12:33:36.967Z,43.30
2018-03-25T12:36:05.081Z,43.60
2018-03-25T12:38:33.548Z,43.60
2018-03-25T12:41:01.162Z,43.80
2018-03-25T12:43:29.296Z,43.70
2018-03-25T12:45:56.815Z,44.00
2018-03-25T12:48:24.371Z,44.30
2018-03-25T12:50:52.677Z,44.30
2018-03-25T12:53:20.580Z,44.10
2018-03-25T12:55:48.142Z,44.30
2018-03-25T12:58:17.068Z,44.30
2018-03-25T13:00:45.172Z,43.80
2018-03-25T13:03:14.634Z,43.60
2018-03-25T13:05:42.191Z,43.60
2018-03-25T13:08:09.810Z,43.60
2018-03-25T13:10:37.369Z,43.70
2018-03-25T13:13:06.031Z,43.90
2018-03-25T13:15:33.746Z,44.10
2018-03-25T13:18:01.322Z,44.40
2018-03-25T13:20:30.550Z,45.00
2018-03-25T13:22:58.899Z,44.10
2018-03-25T13:25:26.467Z,44.10
2018-03-25T13:27:54.056Z,43.90
2018-03-25T13:30:21.612Z,44.20
2018-03-25T13:32:50.843Z,44.50
2018-03-25T13:35:18.378Z,44.50
2018-03-25T13:37:45.933Z,44.20
2018-03-25T13:40:14.163Z,44.30
2018-03-25T13:42:41.722Z,44.00
2018-03-25T13:45:09.260Z,43.90
2018-03-25T13:47:36.869Z,43.70
2018-03-25T13:50:05.266Z,43.60
2018-03-25T13:52:32.842Z,43.40
2018-03-25T13:55:00.475Z,43.40
2018-03-25T13:57:28.003Z,43.40
2018-03-25T13:59:56.400Z,44.10
2018-03-25T14:02:23.926Z,43.50
2018-03-25T14:04:51.448Z,43.40
2018-03-25T14:07:19.617Z,43.30
2018-03-25T14:09:48.043Z,43.30
2018-03-25T14:12:15.577Z,43.20
2018-03-25T14:14:43.168Z,44.10
2018-03-25T14:17:10.717Z,43.30
2018-03-25T14:19:38.263Z,43.10
2018-03-25T14:22:05.833Z,43.10
2018-03-25T14:24:33.356Z,43.10
2018-03-25T14:27:01.461Z,43.30
2018-03-25T14:29:29.084Z,42.30
2018-03-25T14:31:56.686Z,42.00
2018-03-25T14:34:24.215Z,41.90
2018-03-25T14:36:51.783Z,41.90
2018-03-25T14:39:19.343Z,42.00
2018-03-25T14:41:47.718Z,42.10
2018-03-25T14:44:16.931Z,41.70
2018-03-25T14:46:44.510Z,41.70
2018-03-25T14:49:12.564Z,41.50
2018-03-25T14:51:40.201Z,41.60
2018-03-25T14:54:07.823Z,41.40
2018-03-25T14:56:35.858Z,41.70
2018-03-25T14:59:03.432Z,41.80
2018-03-25T15:01:30.970Z,42.00
2018-03-25T15:03:58.530Z,42.30
2018-03-25T15:06:26.072Z,41.70
2018-03-25T15:08:55.088Z,41.80
2018-03-25T15:11:22.650Z,41.80
2018-03-25T15:13:50.228Z,41.50
2018-03-25T15:16:17.784Z,41.60
2018-03-25T15:18:45.369Z,41.50
2018-03-25T15:21:12.918Z,41.20
2018-03-25T15:23:40.474Z,41.10
2018-03-25T15:26:08.028Z,41.10
2018-03-25T15:28:36.564Z,41.20
2018-03-25T15:31:04.149Z,41.20
2018-03-25T15:33:31.804Z,40.90
2018-03-25T15:36:00.178Z,41.10
2018-03-25T15:38:29.222Z,41.00
2018-03-25T15:40:56.762Z,41.20
2018-03-25T15:43:24.678Z,41.20
2018-03-25T15:45:52.221Z,41.10
2018-03-25T15:48:19.963Z,41.20
2018-03-25T15:50:49.731Z,42.30
2018-03-25T15:53:18.046Z,41.50
2018-03-25T15:55:46.875Z,42.20
2018-03-25T15:58:14.919Z,42.30
2018-03-25T16:00:44.255Z,42.60
2018-03-25T16:03:12.822Z,41.70
2018-03-25T16:05:41.222Z,42.40
2018-03-25T16:08:09.198Z,42.50
2018-03-25T16:10:37.499Z,42.60
2018-03-25T16:13:05.069Z,42.50
2018-03-25T16:15:34.232Z,42.30
2018-03-25T16:18:02.039Z,42.10
2018-03-25T16:20:31.292Z,42.30
2018-03-25T16:22:58.812Z,42.10
2018-03-25T16:25:26.344Z,41.90
2018-03-25T16:27:55.928Z,41.80
2018-03-25T16:30:23.596Z,41.90
2018-03-25T16:32:51.150Z,42.00
2018-03-25T16:35:23.155Z,42.00
2018-03-25T16:37:50.779Z,42.30
2018-03-25T16:40:19.198Z,42.30
2018-03-25T16:42:46.899Z,42.50
2018-03-25T16:45:15.942Z,42.80
2018-03-25T16:47:43.566Z,43.00
2018-03-25T16:50:11.111Z,43.10
2018-03-25T16:52:40.471Z,43.40
2018-03-25T16:55:08.032Z,44.00
2018-03-25T16:57:36.469Z,43.40
2018-03-25T17:00:05.455Z,43.70
2018-03-25T17:02:33.052Z,43.60
2018-03-25T17:05:00.586Z,44.00
2018-03-25T17:07:28.135Z,43.90
2018-03-25T17:09:56.482Z,44.20
2018-03-25T17:12:24.443Z,44.10
2018-03-25T17:14:51.967Z,44.30
2018-03-25T17:17:19.519Z,44.30
2018-03-25T17:19:48.034Z,44.40
2018-03-25T17:22:16.504Z,44.60
2018-03-25T17:24:44.405Z,44.60
2018-03-25T17:27:12.984Z,44.60
2018-03-25T17:29:40.442Z,44.90
2018-03-25T17:32:08.006Z,45.00
2018-03-25T17:34:36.457Z,45.10
2018-03-25T17:37:03.985Z,45.10
2018-03-25T17:39:32.273Z,45.30
2018-03-25T17:42:00.914Z,45.30
2018-03-25T17:44:28.869Z,45.30
2018-03-25T17:46:56.584Z,45.50
2018-03-25T17:49:24.896Z,45.60
2018-03-25T17:51:52.445Z,45.60
2018-03-25T17:54:19.960Z,46.30
2018-03-25T17:56:48.097Z,45.90
2018-03-25T17:59:16.311Z,45.70
2018-03-25T18:01:43.835Z,45.80
2018-03-25T18:04:11.423Z,45.80
2018-03-25T18:06:38.991Z,45.70
2018-03-25T18:09:07.325Z,45.90
2018-03-25T18:11:35.340Z,45.90
2018-03-25T18:14:03.212Z,46.00
2018-03-25T18:16:31.913Z,46.20
2018-03-25T18:18:59.444Z,46.30
2018-03-25T18:21:26.982Z,46.40
2018-03-25T18:23:54.991Z,46.40
2018-03-25T18:26:22.560Z,46.30
2018-03-25T18:28:50.846Z,46.40
2018-03-25T18:31:19.130Z,46.50
2018-03-25T18:36:20.614Z,46.50
2018-03-25T18:38:48.238Z,46.70
2018-03-25T18:41:15.751Z,46.60
2018-03-25T18:43:43.271Z,46.80
2018-03-25T18:46:11.065Z,46.90
2018-03-25T18:48:38.592Z,46.90
2018-03-25T18:51:06.889Z,46.90
2018-03-25T18:53:35.303Z,46.90
2018-03-25T18:56:02.902Z,46.80
2018-03-25T18:58:31.273Z,46.90
2018-03-25T19:00:59.616Z,47.00
2018-03-25T19:03:27.147Z,47.00
2018-03-25T19:05:55.238Z,47.00
2018-03-25T19:08:22.771Z,47.00
2018-03-25T19:10:50.291Z,47.10
2018-03-25T19:13:17.866Z,47.20
2018-03-25T19:15:45.507Z,47.20
2018-03-25T19:18:13.234Z,47.10
2018-03-25T19:20:40.788Z,47.20
2018-03-25T19:23:08.545Z,47.30
2018-03-25T19:25:36.070Z,47.30
2018-03-25T19:28:05.442Z,47.80
2018-03-25T19:30:33.136Z,47.60
2018-03-25T19:33:00.683Z,47.60
2018-03-25T19:35:28.522Z,47.60
2018-03-25T19:37:56.084Z,47.60
2018-03-25T19:40:23.924Z,47.60
2018-03-25T19:42:51.739Z,47.70
2018-03-25T19:45:19.263Z,48.00
2018-03-25T19:47:46.794Z,47.90
2018-03-25T19:50:14.460Z,47.90
2018-03-25T19:52:42.010Z,48.10
2018-03-25T19:55:10.064Z,48.20
2018-03-25T19:57:37.693Z,48.20
2018-03-25T20:00:06.101Z,48.10
2018-03-25T20:02:34.576Z,48.10
2018-03-25T20:05:02.142Z,48.30
2018-03-25T20:07:29.702Z,48.30
2018-03-25T20:09:57.265Z,48.30
2018-03-25T20:12:27.438Z,48.30
2018-03-25T20:14:55.041Z,48.30
2018-03-25T20:17:22.578Z,48.50
2018-03-25T20:19:50.135Z,48.60
2018-03-25T20:22:17.775Z,48.50
2018-03-25T20:24:46.155Z,48.70
2018-03-25T20:27:13.918Z,48.50
2018-03-25T20:29:41.465Z,48.50
2018-03-25T20:32:09.009Z,48.40
2018-03-25T20:34:37.319Z,48.60
2018-03-25T20:37:05.569Z,48.60
2018-03-25T20:39:33.117Z,48.60
2018-03-25T20:42:01.420Z,48.60
2018-03-25T20:44:31.470Z,48.50
2018-03-25T20:46:59.020Z,48.50
2018-03-25T20:49:26.580Z,48.80
2018-03-25T20:51:55.808Z,48.70
2018-03-25T20:54:23.362Z,48.80
2018-03-25T20:56:50.916Z,49.00
2018-03-25T20:59:20.122Z,48.90
2018-03-25T21:01:49.197Z,48.90
2018-03-25T21:04:16.769Z,48.90
2018-03-25T21:06:45.964Z,49.00
2018-03-25T21:09:13.546Z,48.90
2018-03-25T21:11:41.109Z,49.00
2018-03-25T21:14:09.387Z,49.10
2018-03-25T21:16:37.022Z,49.00
2018-03-25T21:19:05.238Z,49.10
2018-03-25T21:21:33.551Z,49.20
2018-03-25T21:24:01.090Z,49.20
2018-03-25T21:26:31.220Z,49.40
2018-03-25T21:28:58.752Z,49.50
2018-03-25T21:31:26.290Z,49.40
2018-03-25T21:33:53.920Z,49.50
2018-03-25T21:36:21.504Z,49.60
2018-03-25T21:38:48.999Z,49.50
2018-03-25T21:41:16.571Z,49.60
2018-03-25T21:43:44.149Z,49.60
2018-03-25T21:46:12.438Z,49.70
2018-03-25T21:48:40.029Z,49.50
2018-03-25T21:51:07.573Z,49.70
2018-03-25T21:53:35.889Z,49.60
2018-03-25T21:56:04.796Z,49.60
2018-03-25T21:58:32.337Z,49.50
2018-03-25T22:00:59.953Z,49.60
2018-03-25T22:03:28.056Z,49.90
2018-03-25T22:05:56.457Z,49.90
2018-03-25T22:08:25.280Z,49.80
2018-03-25T22:10:54.058Z,49.80
2018-03-25T22:13:21.566Z,50.00
2018-03-25T22:15:49.103Z,50.00
2018-03-25T22:18:17.167Z,50.20
2018-03-25T22:20:45.312Z,50.00
2018-03-25T22:23:12.835Z,50.00
2018-03-25T22:25:40.389Z,49.90
2018-03-25T22:28:07.919Z,49.90
2018-03-25T22:30:36.358Z,49.90
2018-03-25T22:33:05.594Z,49.90
2018-03-25T22:35:33.147Z,49.80
2018-03-25T22:38:00.666Z,49.80
2018-03-25T22:40:29.645Z,49.70
2018-03-25T22:42:57.168Z,49.60
2018-03-25T22:45:25.303Z,49.60
2018-03-25T22:47:54.228Z,49.40
2018-03-25T22:50:21.743Z,49.40
2018-03-25T22:52:50.074Z,49.50
2018-03-25T22:55:17.603Z,49.50
2018-03-25T22:57:45.857Z,49.50
2018-03-25T23:00:13.418Z,49.30
2018-03-25T23:02:41.750Z,49.40
2018-03-25T23:05:09.298Z,49.30
2018-03-25T23:07:37.742Z,49.30
2018-03-25T23:10:06.242Z,49.60
2018-03-25T23:12:34.042Z,49.60
2018-03-25T23:15:02.004Z,49.50
2018-03-25T23:17:29.555Z,49.60
2018-03-25T23:19:57.112Z,49.90
2018-03-25T23:22:26.139Z,49.70
2018-03-25T23:24:54.299Z,49.90
2018-03-25T23:27:22.671Z,50.20
2018-03-25T23:29:50.201Z,50.20
2018-03-25T23:32:17.745Z,50.20
2018-03-25T23:34:46.058Z,50.20
2018-03-25T23:37:13.865Z,50.20
2018-03-25T23:39:41.422Z,50.20
2018-03-25T23:42:10.478Z,50.40
2018-03-25T23:44:38.033Z,50.30
2018-03-25T23:47:06.346Z,50.40
2018-03-25T23:49:34.684Z,50.50
2018-03-25T23:52:02.220Z,50.50
2018-03-25T23:54:31.227Z,50.80
2018-03-25T23:56:58.811Z,50.80
2018-03-25T23:59:26.483Z,50.90
